createdAt,value
2023-05-05T00:00:00.527Z,100836.41
2023-05-05T00:02:27.487Z,100840.38
2023-05-05T00:04:54.410Z,100836.72
2023-05-05T00:07:21.212Z,100835.03
2023-05-05T00:09:48.153Z,100824.69
2023-05-05T00:12:15.035Z,100831.22
2023-05-05T00:14:41.832Z,100827.22
2023-05-05T00:17:08.694Z,100834.34
2023-05-05T00:19:35.567Z,100817.72
2023-05-05T00:22:02.323Z,100821.69
2023-05-05T00:24:29.138Z,100831.34
2023-05-05T00:26:56.272Z,100817.19
2023-05-05T00:29:23.051Z,100783.03
2023-05-05T00:31:52.905Z,100816.38
2023-05-05T00:34:19.747Z,100817.03
2023-05-05T00:36:46.624Z,100789.03
2023-05-05T00:39:13.399Z,100765.53
2023-05-05T00:41:40.995Z,100807.66
2023-05-05T00:44:07.808Z,100785.81
2023-05-05T00:46:34.580Z,100799.16
2023-05-05T00:49:01.524Z,100810.50
2023-05-05T00:51:28.360Z,100770.38
2023-05-05T00:53:55.277Z,100741.84
2023-05-05T00:56:22.321Z,100763.50
2023-05-05T00:58:49.209Z,100752.66
2023-05-05T01:01:16.680Z,100714.13
2023-05-05T01:03:43.729Z,100780.16
2023-05-05T01:06:29.878Z,100789.03
2023-05-05T01:09:32.411Z,100780.16
2023-05-05T01:12:05.317Z,100778.38
2023-05-05T01:14:39.996Z,100745.16
2023-05-05T01:17:29.555Z,100781.50
2023-05-05T01:20:11.797Z,100679.81
2023-05-05T01:22:41.887Z,100718.63
2023-05-05T01:25:33.945Z,100782.50
2023-05-05T01:28:11.515Z,100757.66
2023-05-05T01:30:56.489Z,100781.97
2023-05-05T01:33:29.000Z,100784.81
2023-05-05T01:35:57.816Z,100759.16
2023-05-05T01:38:40.595Z,100776.13
2023-05-05T01:41:14.391Z,100774.31
2023-05-05T01:43:41.579Z,100738.88
2023-05-05T01:46:08.481Z,100771.06
2023-05-05T01:48:35.348Z,100774.41
2023-05-05T01:51:02.546Z,100755.31
2023-05-05T01:53:29.293Z,100744.94
2023-05-05T01:55:56.152Z,100770.63
2023-05-05T01:58:26.218Z,100770.63
2023-05-05T02:00:53.181Z,100781.06
2023-05-05T02:03:20.182Z,100728.53
2023-05-05T02:05:47.102Z,100757.91
2023-05-05T02:08:14.009Z,100775.22
2023-05-05T02:10:41.043Z,100776.38
2023-05-05T02:13:07.946Z,100729.06
2023-05-05T02:15:35.131Z,100752.91
2023-05-05T02:18:02.229Z,100765.41
2023-05-05T02:20:28.967Z,100745.06
2023-05-05T02:22:55.846Z,100744.19
2023-05-05T02:25:23.773Z,100769.53
2023-05-05T02:27:50.797Z,100747.13
2023-05-05T02:30:18.541Z,100774.81
2023-05-05T02:32:48.241Z,100745.28
2023-05-05T02:35:17.422Z,100711.09
2023-05-05T02:37:45.328Z,100765.31
2023-05-05T02:40:12.268Z,100747.28
2023-05-05T02:42:40.124Z,100734.34
2023-05-05T02:45:16.230Z,100763.16
2023-05-05T02:47:43.084Z,100765.16
2023-05-05T02:50:10.825Z,100746.84
2023-05-05T02:52:37.974Z,100763.75
2023-05-05T02:55:05.187Z,100717.44
2023-05-05T02:57:36.075Z,100712.66
2023-05-05T03:00:11.170Z,100760.31
2023-05-05T03:03:07.008Z,100759.78
2023-05-05T03:05:49.979Z,100714.94
2023-05-05T03:08:18.022Z,100756.97
2023-05-05T03:10:48.218Z,100752.78
2023-05-05T03:13:16.581Z,100757.94
2023-05-05T03:15:49.857Z,100667.91
2023-05-05T03:18:17.866Z,100759.66
2023-05-05T03:20:44.617Z,100763.09
2023-05-05T03:23:13.367Z,100747.25
2023-05-05T03:25:47.270Z,100746.50
2023-05-05T03:28:14.738Z,100736.16
2023-05-05T03:30:41.783Z,100747.00
2023-05-05T03:33:10.508Z,100730.31
2023-05-05T03:35:37.286Z,100740.25
2023-05-05T03:38:04.103Z,100737.25
2023-05-05T03:40:43.125Z,100734.56
2023-05-05T03:43:10.823Z,100734.66
2023-05-05T03:45:38.069Z,100734.16
2023-05-05T03:48:05.302Z,100740.44
2023-05-05T03:50:32.099Z,100742.09
2023-05-05T03:52:58.939Z,100742.44
2023-05-05T03:55:26.015Z,100730.81
2023-05-05T03:57:52.731Z,100734.47
2023-05-05T04:00:19.812Z,100717.91
2023-05-05T04:02:46.686Z,100735.78
2023-05-05T04:05:13.600Z,100729.16
2023-05-05T04:07:40.512Z,100721.88
2023-05-05T04:10:08.315Z,100682.19
2023-05-05T04:12:35.489Z,100713.25
2023-05-05T04:15:02.386Z,100704.56
2023-05-05T04:17:29.159Z,100706.81
2023-05-05T04:19:55.883Z,100676.81
2023-05-05T04:22:22.974Z,100703.69
2023-05-05T04:24:49.683Z,100669.38
2023-05-05T04:27:16.570Z,100683.88
2023-05-05T04:29:43.427Z,100688.88
2023-05-05T04:32:10.224Z,100701.06
2023-05-05T04:34:37.106Z,100710.19
2023-05-05T04:37:03.990Z,100702.44
2023-05-05T04:39:31.562Z,100702.78
2023-05-05T04:41:58.387Z,100702.88
2023-05-05T04:44:25.230Z,100669.94
2023-05-05T04:46:52.170Z,100689.78
2023-05-05T04:49:18.945Z,100715.13
2023-05-05T04:51:46.767Z,100639.75
2023-05-05T04:54:13.903Z,100703.31
2023-05-05T04:56:40.906Z,100707.09
2023-05-05T04:59:07.866Z,100704.59
2023-05-05T05:01:36.877Z,100709.56
2023-05-05T05:04:05.248Z,100684.97
2023-05-05T05:06:32.514Z,100698.31
2023-05-05T05:08:59.318Z,100673.94
2023-05-05T05:11:26.539Z,100675.72
2023-05-05T05:13:53.604Z,100700.72
2023-05-05T05:16:20.448Z,100676.34
2023-05-05T05:18:47.306Z,100706.16
2023-05-05T05:21:14.182Z,100702.63
2023-05-05T05:23:40.885Z,100693.44
2023-05-05T05:26:07.643Z,100694.59
2023-05-05T05:28:34.498Z,100660.41
2023-05-05T05:31:01.451Z,100685.03
2023-05-05T05:33:28.402Z,100700.66
2023-05-05T05:35:55.242Z,100671.38
2023-05-05T05:38:22.128Z,100708.59
2023-05-05T05:40:48.923Z,100711.94
2023-05-05T05:43:15.950Z,100700.13
2023-05-05T05:45:42.832Z,100719.44
2023-05-05T05:48:09.905Z,100714.84
2023-05-05T05:50:36.826Z,100712.16
2023-05-05T05:53:03.766Z,100723.22
2023-05-05T05:55:30.556Z,100711.00
2023-05-05T05:57:57.384Z,100715.47
2023-05-05T06:00:24.470Z,100725.50
2023-05-05T06:02:51.733Z,100724.03
2023-05-05T06:05:18.840Z,100706.94
2023-05-05T06:07:45.589Z,100734.13
2023-05-05T06:10:26.508Z,100729.03
2023-05-05T06:12:55.162Z,100735.69
2023-05-05T06:15:21.924Z,100734.75
2023-05-05T06:17:48.769Z,100729.97
2023-05-05T06:20:15.879Z,100738.31
2023-05-05T06:22:42.747Z,100685.09
2023-05-05T06:25:09.599Z,100714.38
2023-05-05T06:27:36.583Z,100697.28
2023-05-05T06:30:03.480Z,100732.09
2023-05-05T06:32:30.311Z,100739.19
2023-05-05T06:34:57.135Z,100720.25
2023-05-05T06:37:25.469Z,100748.47
2023-05-05T06:39:52.188Z,100741.25
2023-05-05T06:42:18.990Z,100746.75
2023-05-05T06:44:46.114Z,100736.09
2023-05-05T06:47:12.819Z,100747.13
2023-05-05T06:49:39.664Z,100753.81
2023-05-05T06:52:08.305Z,100733.34
2023-05-05T06:54:35.460Z,100748.56
2023-05-05T06:57:02.210Z,100744.59
2023-05-05T06:59:28.992Z,100746.16
2023-05-05T07:01:56.669Z,100745.22
2023-05-05T07:04:23.523Z,100747.16
2023-05-05T07:06:50.274Z,100749.88
2023-05-05T07:09:17.664Z,100758.59
2023-05-05T07:11:44.565Z,100757.78
2023-05-05T07:14:11.698Z,100753.47
2023-05-05T07:16:39.325Z,100748.53
2023-05-05T07:19:06.421Z,100754.69
2023-05-05T07:21:36.712Z,100741.69
2023-05-05T07:24:03.981Z,100755.31
2023-05-05T07:26:30.908Z,100750.88
2023-05-05T07:28:58.982Z,100763.13
2023-05-05T07:31:26.864Z,100766.47
2023-05-05T07:33:53.882Z,100767.53
2023-05-05T07:36:20.876Z,100776.41
2023-05-05T07:38:48.396Z,100763.06
2023-05-05T07:41:15.245Z,100769.22
2023-05-05T07:43:44.261Z,100758.81
2023-05-05T07:46:12.169Z,100730.38
2023-05-05T07:48:41.590Z,100745.56
2023-05-05T07:51:08.885Z,100744.75
2023-05-05T07:53:35.841Z,100766.31
2023-05-05T07:56:02.683Z,100767.25
2023-05-05T07:58:29.518Z,100767.47
2023-05-05T08:00:56.623Z,100772.28
2023-05-05T08:03:24.915Z,100747.31
2023-05-05T08:05:56.038Z,100740.13
2023-05-05T08:08:27.176Z,100774.22
2023-05-05T08:10:54.619Z,100777.91
2023-05-05T08:13:21.513Z,100772.28
2023-05-05T08:15:48.277Z,100774.66
2023-05-05T08:18:15.097Z,100769.44
2023-05-05T08:20:42.197Z,100779.38
2023-05-05T08:23:09.014Z,100762.59
2023-05-05T08:25:37.201Z,100773.16
2023-05-05T08:28:04.081Z,100781.19
2023-05-05T08:30:30.956Z,100791.75
2023-05-05T08:32:57.891Z,100788.59
2023-05-05T08:35:24.850Z,100785.41
2023-05-05T08:37:52.020Z,100783.31
2023-05-05T08:40:20.997Z,100783.81
2023-05-05T08:42:48.132Z,100779.31
2023-05-05T08:45:16.046Z,100779.66
2023-05-05T08:47:43.557Z,100784.66
2023-05-05T08:50:11.130Z,100771.03
2023-05-05T08:52:45.293Z,100762.47
2023-05-05T08:55:22.426Z,100748.59
2023-05-05T08:57:54.056Z,100746.56
2023-05-05T09:00:21.277Z,100785.22
2023-05-05T09:02:51.947Z,100756.25
2023-05-05T09:05:18.767Z,100767.13
2023-05-05T09:07:46.952Z,100762.81
2023-05-05T09:10:13.788Z,100770.75
2023-05-05T09:12:42.175Z,100780.00
2023-05-05T09:15:14.006Z,100743.97
2023-05-05T09:17:41.470Z,100739.44
2023-05-05T09:20:09.737Z,100777.03
2023-05-05T09:22:40.409Z,100741.63
2023-05-05T09:25:09.062Z,100769.66
2023-05-05T09:27:43.959Z,100772.31
2023-05-05T09:30:12.212Z,100770.56
2023-05-05T09:32:49.582Z,100774.53
2023-05-05T09:35:17.071Z,100775.00
2023-05-05T09:37:43.885Z,100771.94
2023-05-05T09:40:12.240Z,100743.50
2023-05-05T09:42:39.652Z,100752.72
2023-05-05T09:45:18.869Z,100760.31
2023-05-05T09:47:46.501Z,100754.41
2023-05-05T09:50:19.186Z,100762.81
2023-05-05T09:53:04.175Z,100754.50
2023-05-05T09:55:33.968Z,100763.44
2023-05-05T09:58:20.255Z,100761.88
2023-05-05T10:00:47.925Z,100732.16
2023-05-05T10:03:14.738Z,100746.81
2023-05-05T10:05:50.863Z,100754.97
2023-05-05T10:08:21.173Z,100740.13
2023-05-05T10:10:59.781Z,100674.44
2023-05-05T10:13:26.793Z,100744.19
2023-05-05T10:15:57.185Z,100740.78
2023-05-05T10:18:25.364Z,100742.66
2023-05-05T10:21:00.187Z,100742.16
2023-05-05T10:23:40.183Z,100740.97
2023-05-05T10:26:07.928Z,100716.03
2023-05-05T10:28:41.744Z,100725.84
2023-05-05T10:31:24.560Z,100704.81
2023-05-05T10:33:56.265Z,100735.78
2023-05-05T10:36:23.547Z,100751.25
2023-05-05T10:38:50.904Z,100753.34
2023-05-05T10:41:17.831Z,100717.34
2023-05-05T10:43:44.584Z,100758.66
2023-05-05T10:46:12.127Z,100754.44
2023-05-05T10:49:13.337Z,100746.53
2023-05-05T10:51:57.407Z,100748.38
2023-05-05T10:54:57.902Z,100753.66
2023-05-05T10:57:25.768Z,100743.81
2023-05-05T10:59:52.704Z,100741.41
2023-05-05T11:02:26.768Z,100741.09
2023-05-05T11:05:21.425Z,100732.09
2023-05-05T11:07:50.203Z,100730.31
2023-05-05T11:10:23.852Z,100705.66
2023-05-05T11:13:02.118Z,100732.56
2023-05-05T11:15:31.524Z,100735.56
2023-05-05T11:17:59.162Z,100727.44
2023-05-05T11:20:41.417Z,100729.78
2023-05-05T11:23:08.189Z,100732.09
2023-05-05T11:25:35.234Z,100736.50
2023-05-05T11:28:08.684Z,100726.53
2023-05-05T11:30:36.274Z,100738.56
2023-05-05T11:33:29.237Z,100728.00
2023-05-05T11:35:56.318Z,100725.66
2023-05-05T11:38:33.053Z,100724.91
2023-05-05T11:41:21.762Z,100717.97
2023-05-05T11:43:48.484Z,100718.34
2023-05-05T11:46:16.886Z,100686.25
2023-05-05T11:48:50.836Z,100715.19
2023-05-05T11:51:19.812Z,100721.41
2023-05-05T11:53:49.226Z,100723.56
2023-05-05T11:56:25.098Z,100714.88
2023-05-05T11:59:10.555Z,100716.72
2023-05-05T12:01:41.469Z,100723.84
2023-05-05T12:04:14.953Z,100725.97
2023-05-05T12:06:42.256Z,100730.94
2023-05-05T12:09:19.708Z,100709.13
2023-05-05T12:11:50.076Z,100713.25
2023-05-05T12:14:16.861Z,100712.44
2023-05-05T12:17:10.021Z,100713.25
2023-05-05T12:19:37.187Z,100706.63
2023-05-05T12:22:04.671Z,100702.50
2023-05-05T12:24:31.831Z,100692.47
2023-05-05T12:27:11.210Z,100696.00
2023-05-05T12:29:38.131Z,100696.25
2023-05-05T12:32:05.231Z,100689.84
2023-05-05T12:34:32.043Z,100686.53
2023-05-05T12:36:58.898Z,100679.88
2023-05-05T12:39:37.549Z,100644.75
2023-05-05T12:42:04.977Z,100669.88
2023-05-05T12:44:38.484Z,100656.41
2023-05-05T12:47:05.535Z,100660.38
2023-05-05T12:49:35.029Z,100629.69
2023-05-05T12:52:02.153Z,100659.56
2023-05-05T12:54:31.764Z,100661.25
2023-05-05T12:56:58.812Z,100652.47
2023-05-05T12:59:25.502Z,100658.22
2023-05-05T13:01:53.897Z,100661.00
2023-05-05T13:04:21.479Z,100649.22
2023-05-05T13:06:48.860Z,100635.81
2023-05-05T13:09:31.164Z,100646.88
2023-05-05T13:11:58.074Z,100645.22
2023-05-05T13:14:24.927Z,100646.59
2023-05-05T13:16:51.761Z,100644.66
2023-05-05T13:19:18.603Z,100641.13
2023-05-05T13:21:45.408Z,100659.44
2023-05-05T13:24:25.895Z,100651.03
2023-05-05T13:26:58.205Z,100658.63
2023-05-05T13:29:29.527Z,100655.91
2023-05-05T13:31:58.030Z,100654.44
2023-05-05T13:34:24.920Z,100653.22
2023-05-05T13:36:52.095Z,100647.91
2023-05-05T13:39:18.963Z,100645.78
2023-05-05T13:41:46.466Z,100643.13
2023-05-05T13:44:14.132Z,100620.34
2023-05-05T13:46:42.361Z,100608.66
2023-05-05T13:49:09.207Z,100638.03
2023-05-05T13:51:37.072Z,100640.31
2023-05-05T13:54:04.866Z,100633.97
2023-05-05T13:56:31.813Z,100629.53
2023-05-05T13:58:58.584Z,100615.13
2023-05-05T14:01:26.146Z,100624.16
2023-05-05T14:03:54.414Z,100619.53
2023-05-05T14:06:22.128Z,100614.31
2023-05-05T14:08:49.017Z,100616.84
2023-05-05T14:11:18.134Z,100611.91
2023-05-05T14:13:46.543Z,100614.44
2023-05-05T14:16:13.768Z,100567.78
2023-05-05T14:18:40.648Z,100598.56
2023-05-05T14:21:07.450Z,100590.28
2023-05-05T14:23:34.358Z,100588.41
2023-05-05T14:26:01.294Z,100578.44
2023-05-05T14:28:28.083Z,100580.84
2023-05-05T14:30:54.960Z,100584.84
2023-05-05T14:33:22.320Z,100585.59
2023-05-05T14:35:49.242Z,100593.28
2023-05-05T14:38:16.132Z,100498.59
2023-05-05T14:40:42.955Z,100572.81
2023-05-05T14:43:09.735Z,100537.31
2023-05-05T14:45:36.684Z,100579.44
2023-05-05T14:48:04.252Z,100582.56
2023-05-05T14:50:31.059Z,100588.13
2023-05-05T14:52:58.003Z,100579.81
2023-05-05T14:55:25.256Z,100582.44
2023-05-05T14:57:52.143Z,100578.06
2023-05-05T15:00:19.227Z,100582.47
2023-05-05T15:02:48.156Z,100575.81
2023-05-05T15:05:15.321Z,100584.44
2023-05-05T15:07:42.153Z,100579.97
2023-05-05T15:10:09.450Z,100582.91
2023-05-05T15:12:36.457Z,100552.13
2023-05-05T15:15:03.440Z,100572.13
2023-05-05T15:17:30.888Z,100569.63
2023-05-05T15:19:57.804Z,100561.97
2023-05-05T15:22:24.675Z,100575.47
2023-05-05T15:24:51.409Z,100571.69
2023-05-05T15:27:18.672Z,100573.31
2023-05-05T15:29:45.520Z,100577.00
2023-05-05T15:32:12.485Z,100561.84
2023-05-05T15:34:39.228Z,100567.38
2023-05-05T15:39:32.701Z,100569.19
2023-05-05T15:42:02.809Z,100560.91
2023-05-05T15:44:30.388Z,100560.78
2023-05-05T15:46:57.140Z,100552.50
2023-05-05T15:49:23.933Z,100544.66
2023-05-05T15:51:51.267Z,100557.47
2023-05-05T15:54:18.297Z,100516.97
2023-05-05T15:56:45.117Z,100550.59
2023-05-05T15:59:11.894Z,100555.09
2023-05-05T16:01:38.760Z,100557.94
2023-05-05T16:04:05.809Z,100549.41
2023-05-05T16:06:32.727Z,100557.94
2023-05-05T16:08:59.602Z,100555.00
2023-05-05T16:11:27.026Z,100549.19
2023-05-05T16:13:54.095Z,100547.50
2023-05-05T16:16:21.250Z,100544.66
2023-05-05T16:18:48.263Z,100550.84
2023-05-05T16:21:15.204Z,100557.47
2023-05-05T16:23:41.947Z,100523.38
2023-05-05T16:26:08.817Z,100526.69
2023-05-05T16:28:35.727Z,100550.72
2023-05-05T16:31:02.513Z,100507.28
2023-05-05T16:33:29.472Z,100545.63
2023-05-05T16:35:56.605Z,100542.69
2023-05-05T16:38:23.381Z,100540.66
2023-05-05T16:40:50.562Z,100525.13
2023-05-05T16:43:17.422Z,100524.91
2023-05-05T16:45:44.131Z,100527.75
2023-05-05T16:48:10.969Z,100516.84
2023-05-05T16:50:37.842Z,100509.28
2023-05-05T16:53:04.985Z,100515.44
2023-05-05T16:55:31.832Z,100494.72
2023-05-05T16:57:58.664Z,100497.44
2023-05-05T17:00:25.658Z,100492.56
2023-05-05T17:02:52.485Z,100483.44
2023-05-05T17:05:19.533Z,100494.94
2023-05-05T17:07:48.276Z,100447.84
2023-05-05T17:10:15.187Z,100487.22
2023-05-05T17:12:42.166Z,100484.28
2023-05-05T17:15:09.399Z,100472.81
2023-05-05T17:17:36.366Z,100470.31
2023-05-05T17:20:04.921Z,100462.97
2023-05-05T17:22:32.183Z,100412.31
2023-05-05T17:24:59.055Z,100464.41
2023-05-05T17:27:25.881Z,100465.69
2023-05-05T17:32:19.175Z,100473.41
2023-05-05T17:34:46.097Z,100469.63
2023-05-05T17:37:12.877Z,100462.06
2023-05-05T17:39:39.679Z,100479.69
2023-05-05T17:42:06.643Z,100480.06
2023-05-05T17:44:33.628Z,100475.41
2023-05-05T17:47:00.566Z,100468.91
2023-05-05T17:49:27.413Z,100474.59
2023-05-05T17:51:54.172Z,100478.63
2023-05-05T17:54:21.170Z,100478.63
2023-05-05T17:56:48.003Z,100437.09
2023-05-05T17:59:14.762Z,100475.31
2023-05-05T18:01:41.681Z,100466.31
2023-05-05T18:04:08.641Z,100448.78
2023-05-05T18:06:35.557Z,100470.34
2023-05-05T18:09:02.476Z,100468.22
2023-05-05T18:11:31.130Z,100469.13
2023-05-05T18:13:57.906Z,100481.31
2023-05-05T18:16:24.672Z,100441.91
2023-05-05T18:18:51.662Z,100467.25
2023-05-05T18:21:18.630Z,100466.63
2023-05-05T18:23:45.832Z,100464.84
2023-05-05T18:26:12.677Z,100430.56
2023-05-05T18:28:39.426Z,100453.25
2023-05-05T18:31:06.691Z,100458.81
2023-05-05T18:33:33.575Z,100459.78
2023-05-05T18:36:03.121Z,100472.91
2023-05-05T18:38:30.815Z,100471.25
2023-05-05T18:40:57.615Z,100467.47
2023-05-05T18:43:24.337Z,100433.72
2023-05-05T18:45:51.174Z,100466.63
2023-05-05T18:48:18.006Z,100394.88
2023-05-05T18:50:45.860Z,100441.50
2023-05-05T18:53:14.902Z,100451.69
2023-05-05T18:55:43.517Z,100469.22
2023-05-05T18:58:10.391Z,100467.91
2023-05-05T19:00:37.419Z,100470.97
2023-05-05T19:03:05.734Z,100433.03
2023-05-05T19:05:32.528Z,100456.88
2023-05-05T19:07:59.365Z,100463.00
2023-05-05T19:10:26.373Z,100468.53
2023-05-05T19:12:53.197Z,100462.25
2023-05-05T19:15:20.315Z,100471.78
2023-05-05T19:17:47.733Z,100468.00
2023-05-05T19:20:14.585Z,100469.06
2023-05-05T19:22:41.717Z,100475.75
2023-05-05T19:25:09.211Z,100474.47
2023-05-05T19:27:37.127Z,100479.28
2023-05-05T19:30:05.353Z,100472.66
2023-05-05T19:32:32.279Z,100481.03
2023-05-05T19:34:59.069Z,100466.44
2023-05-05T19:37:25.844Z,100474.31
2023-05-05T19:39:52.703Z,100485.94
2023-05-05T19:42:19.582Z,100487.66
2023-05-05T19:44:46.314Z,100496.19
2023-05-05T19:47:13.140Z,100496.41
2023-05-05T19:49:39.853Z,100497.41
2023-05-05T19:52:06.632Z,100491.59
2023-05-05T19:54:33.471Z,100471.72
2023-05-05T19:57:00.829Z,100481.69
2023-05-05T19:59:27.742Z,100492.16
2023-05-05T20:01:54.719Z,100493.69
2023-05-05T20:04:21.593Z,100481.91
2023-05-05T20:06:48.569Z,100493.06
2023-05-05T20:09:15.508Z,100494.09
2023-05-05T20:11:42.337Z,100492.41
2023-05-05T20:14:09.813Z,100410.13
2023-05-05T20:16:36.714Z,100486.28
2023-05-05T20:19:03.558Z,100493.47
2023-05-05T20:21:30.774Z,100484.53
2023-05-05T20:23:59.867Z,100502.69
2023-05-05T20:26:27.156Z,100497.41
2023-05-05T20:28:53.977Z,100439.97
2023-05-05T20:31:20.996Z,100518.88
2023-05-05T20:33:47.865Z,100503.47
2023-05-05T20:36:15.649Z,100483.66
2023-05-05T20:38:43.447Z,100509.06
2023-05-05T20:41:10.213Z,100498.56
2023-05-05T20:43:37.211Z,100503.06
2023-05-05T20:46:04.221Z,100489.59
2023-05-05T20:48:30.987Z,100504.91
2023-05-05T20:50:58.936Z,100487.47
2023-05-05T20:53:26.436Z,100500.41
2023-05-05T20:55:53.194Z,100486.66
2023-05-05T20:58:22.153Z,100473.22
2023-05-05T21:00:48.959Z,100484.56
2023-05-05T21:03:15.804Z,100485.38
2023-05-05T21:05:42.706Z,100506.63
2023-05-05T21:08:09.484Z,100512.63
2023-05-05T21:10:36.434Z,100467.44
2023-05-05T21:13:03.524Z,100504.00
2023-05-05T21:15:30.512Z,100500.31
2023-05-05T21:17:57.570Z,100486.72
2023-05-05T21:20:24.533Z,100489.84
2023-05-05T21:22:51.338Z,100499.63
2023-05-05T21:25:21.512Z,100478.22
2023-05-05T21:27:48.808Z,100495.00
2023-05-05T21:30:16.116Z,100491.50
2023-05-05T21:32:43.346Z,100495.72
2023-05-05T21:35:10.627Z,100489.06
2023-05-05T21:37:38.793Z,100483.91
2023-05-05T21:40:09.506Z,100487.41
2023-05-05T21:42:36.725Z,100487.41
2023-05-05T21:45:05.038Z,100489.75
2023-05-05T21:47:31.843Z,100493.75
2023-05-05T21:49:59.137Z,100469.16
2023-05-05T21:52:25.927Z,100494.91
2023-05-05T21:54:52.671Z,100460.06
2023-05-05T21:57:19.592Z,100461.06
2023-05-05T21:59:46.708Z,100486.81
2023-05-05T22:02:13.423Z,100489.13
2023-05-05T22:04:40.308Z,100485.66
2023-05-05T22:07:07.083Z,100490.66
2023-05-05T22:09:33.810Z,100489.81
2023-05-05T22:12:00.726Z,100481.50
2023-05-05T22:14:27.576Z,100485.53
2023-05-05T22:16:54.383Z,100478.19
2023-05-05T22:19:21.301Z,100478.53
2023-05-05T22:21:48.047Z,100461.75
2023-05-05T22:24:14.813Z,100478.50
2023-05-05T22:26:43.544Z,100477.38
2023-05-05T22:29:10.840Z,100475.06
2023-05-05T22:31:37.794Z,100461.78
2023-05-05T22:34:04.810Z,100481.56
2023-05-05T22:36:31.730Z,100481.06
2023-05-05T22:38:58.602Z,100478.25
2023-05-05T22:41:25.793Z,100476.59
2023-05-05T22:43:52.516Z,100469.13
2023-05-05T22:46:19.319Z,100435.38
2023-05-05T22:48:46.945Z,100481.94
2023-05-05T22:51:13.691Z,100471.28
2023-05-05T22:53:41.122Z,100474.59
2023-05-05T22:56:08.105Z,100414.16
2023-05-05T22:58:34.818Z,100465.94
2023-05-05T23:01:01.638Z,100461.31
2023-05-05T23:03:28.603Z,100461.50
2023-05-05T23:05:55.459Z,100460.00
2023-05-05T23:08:24.088Z,100443.72
2023-05-05T23:10:51.038Z,100436.56
2023-05-05T23:13:17.914Z,100441.91
2023-05-05T23:15:44.814Z,100438.91
2023-05-05T23:18:11.691Z,100440.06
2023-05-05T23:20:38.522Z,100428.75
2023-05-05T23:23:05.473Z,100435.06
2023-05-05T23:25:32.385Z,100437.06
2023-05-05T23:27:59.117Z,100436.91
2023-05-05T23:30:25.837Z,100397.88
2023-05-05T23:32:52.817Z,100330.41
2023-05-05T23:35:19.841Z,100434.06
2023-05-05T23:37:46.550Z,100402.31
2023-05-05T23:40:13.449Z,100389.84
2023-05-05T23:42:40.306Z,100419.28
2023-05-05T23:45:07.824Z,100418.63
2023-05-05T23:47:36.051Z,100347.50
2023-05-05T23:50:03.551Z,100379.06
2023-05-05T23:52:30.361Z,100412.78
2023-05-05T23:54:57.200Z,100393.03
2023-05-05T23:57:24.004Z,100394.31
2023-05-05T23:59:51.327Z,100388.84
